createdAt,value
2023-05-08T00:00:11.267Z,8.10
2023-05-08T00:01:05.062Z,8.40
2023-05-08T00:01:38.291Z,8.50
2023-05-08T00:02:11.467Z,8.30
2023-05-08T00:02:44.818Z,8.50
2023-05-08T00:03:18.458Z,8.60
2023-05-08T00:03:52.536Z,11.50
2023-05-08T00:04:26.977Z,10.40
2023-05-08T00:05:00.713Z,9.00
2023-05-08T00:05:34.255Z,9.50
2023-05-08T00:06:07.656Z,8.70
2023-05-08T00:06:41.861Z,8.60
2023-05-08T00:07:15.415Z,8.40
2023-05-08T00:07:51.295Z,8.10
2023-05-08T00:08:25.037Z,8.40
2023-05-08T00:08:58.459Z,8.00
2023-05-08T00:09:32.541Z,8.00
2023-05-08T00:10:08.025Z,8.40
2023-05-08T00:10:41.360Z,8.60
2023-05-08T00:11:16.695Z,10.50
2023-05-08T00:11:53.138Z,8.40
2023-05-08T00:12:27.771Z,8.10
2023-05-08T00:13:01.131Z,8.00
2023-05-08T00:13:37.124Z,8.00
2023-05-08T00:14:10.550Z,9.80
2023-05-08T00:14:43.812Z,10.40
2023-05-08T00:15:17.137Z,8.60
2023-05-08T00:15:51.041Z,8.40
2023-05-08T00:16:25.060Z,8.60
2023-05-08T00:16:58.688Z,8.80
2023-05-08T00:17:34.278Z,8.20
2023-05-08T00:18:07.806Z,8.30
2023-05-08T00:18:41.287Z,8.70
2023-05-08T00:19:14.831Z,10.00
2023-05-08T00:19:48.552Z,8.30
2023-05-08T00:20:22.221Z,9.80
2023-05-08T00:20:55.764Z,8.90
2023-05-08T00:21:29.148Z,11.30
2023-05-08T00:22:02.358Z,9.00
2023-05-08T00:22:36.092Z,9.30
2023-05-08T00:23:09.352Z,9.40
2023-05-08T00:23:42.877Z,8.50
2023-05-08T00:24:16.169Z,8.50
2023-05-08T00:24:51.135Z,8.70
2023-05-08T00:25:24.437Z,13.40
2023-05-08T00:25:58.603Z,9.30
2023-05-08T00:26:31.974Z,8.70
2023-05-08T00:27:05.954Z,8.80
2023-05-08T00:27:39.455Z,8.70
2023-05-08T00:28:12.765Z,11.60
2023-05-08T00:28:46.153Z,8.80
2023-05-08T00:29:19.440Z,8.30
2023-05-08T00:29:53.820Z,10.30
2023-05-08T00:30:27.971Z,8.80
2023-05-08T00:31:02.459Z,8.20
2023-05-08T00:31:36.076Z,8.50
2023-05-08T00:32:10.076Z,8.60
2023-05-08T00:32:43.524Z,9.30
2023-05-08T00:33:16.870Z,10.00
2023-05-08T00:33:51.194Z,10.40
2023-05-08T00:34:24.550Z,8.60
2023-05-08T00:34:57.895Z,8.60
2023-05-08T00:35:31.526Z,10.80
2023-05-08T00:36:06.045Z,10.20
2023-05-08T00:36:39.882Z,10.50
2023-05-08T00:37:13.311Z,9.90
2023-05-08T00:37:46.963Z,10.70
2023-05-08T00:38:20.223Z,8.90
2023-05-08T00:38:53.641Z,11.00
2023-05-08T00:39:26.992Z,8.50
2023-05-08T00:40:02.204Z,9.10
2023-05-08T00:40:36.866Z,9.20
2023-05-08T00:41:10.189Z,9.90
2023-05-08T00:41:43.941Z,9.00
2023-05-08T00:42:17.176Z,9.10
2023-05-08T00:42:50.581Z,10.60
2023-05-08T00:43:26.686Z,9.30
2023-05-08T00:43:59.905Z,8.80
2023-05-08T00:44:33.453Z,9.70
2023-05-08T00:45:07.429Z,9.10
2023-05-08T00:45:41.477Z,9.00
2023-05-08T00:46:14.930Z,8.70
2023-05-08T00:46:48.707Z,10.30
2023-05-08T00:47:24.152Z,9.00
2023-05-08T00:47:57.704Z,9.10
2023-05-08T00:48:33.569Z,9.80
2023-05-08T00:49:07.655Z,9.40
2023-05-08T00:49:41.134Z,9.90
2023-05-08T00:50:14.769Z,9.30
2023-05-08T00:50:49.029Z,10.00
2023-05-08T00:51:23.409Z,9.30
2023-05-08T00:51:57.129Z,10.00
2023-05-08T00:52:33.326Z,8.80
2023-05-08T00:53:07.049Z,10.10
2023-05-08T00:53:43.211Z,9.60
2023-05-08T00:54:17.410Z,9.80
2023-05-08T00:54:50.948Z,10.20
2023-05-08T00:55:24.953Z,10.90
2023-05-08T00:55:59.402Z,10.20
2023-05-08T00:56:34.412Z,9.30
2023-05-08T00:57:08.494Z,10.60
2023-05-08T00:57:42.940Z,9.70
2023-05-08T00:58:17.068Z,9.80
2023-05-08T00:58:51.426Z,9.90
2023-05-08T00:59:26.206Z,11.10
2023-05-08T01:00:01.484Z,11.60
2023-05-08T01:00:35.180Z,10.20
2023-05-08T01:01:08.930Z,11.10
2023-05-08T01:01:43.973Z,10.00
2023-05-08T01:02:17.420Z,10.40
2023-05-08T01:02:50.993Z,9.80
2023-05-08T01:03:25.504Z,10.90
2023-05-08T01:03:59.005Z,10.00
2023-05-08T01:04:35.008Z,10.30
2023-05-08T01:05:08.657Z,10.50
2023-05-08T01:05:42.192Z,10.30
2023-05-08T01:06:15.406Z,9.80
2023-05-08T01:06:48.609Z,12.00
2023-05-08T01:07:22.531Z,10.90
2023-05-08T01:07:56.339Z,9.60
2023-05-08T01:08:29.700Z,9.80
2023-05-08T01:09:03.963Z,10.90
2023-05-08T01:09:37.378Z,11.90
2023-05-08T01:10:11.162Z,9.30
2023-05-08T01:10:53.080Z,9.90
2023-05-08T01:12:17.069Z,10.50
2023-05-08T01:12:59.182Z,10.30
2023-05-08T01:13:52.606Z,11.50
2023-05-08T01:15:02.620Z,12.50
2023-05-08T01:15:44.785Z,10.30
2023-05-08T01:16:34.172Z,9.30
2023-05-08T01:17:39.666Z,9.90
2023-05-08T01:18:37.514Z,10.00
2023-05-08T01:19:31.994Z,9.30
2023-05-08T01:20:20.508Z,9.90
2023-05-08T01:21:03.827Z,9.30
2023-05-08T01:21:46.113Z,9.50
2023-05-08T01:22:36.936Z,9.90
2023-05-08T01:23:28.397Z,10.40
2023-05-08T01:24:21.909Z,10.00
2023-05-08T01:25:42.460Z,9.60
2023-05-08T01:26:40.199Z,9.60
2023-05-08T01:27:42.358Z,9.90
2023-05-08T01:28:45.779Z,11.50
2023-05-08T01:29:44.190Z,10.60
2023-05-08T01:30:31.089Z,9.40
2023-05-08T01:31:26.452Z,11.00
2023-05-08T01:32:08.810Z,10.00
2023-05-08T01:32:55.843Z,10.00
2023-05-08T01:33:55.748Z,11.10
2023-05-08T01:34:33.721Z,10.20
2023-05-08T01:35:07.944Z,10.20
2023-05-08T01:35:51.810Z,12.90
2023-05-08T01:36:27.716Z,10.50
2023-05-08T01:37:05.901Z,11.10
2023-05-08T01:37:45.474Z,11.30
2023-05-08T01:38:33.109Z,10.60
2023-05-08T01:39:20.733Z,10.00
2023-05-08T01:40:34.065Z,11.00
2023-05-08T01:41:12.369Z,11.00
2023-05-08T01:42:08.561Z,10.80
2023-05-08T01:42:50.983Z,10.80
2023-05-08T01:43:35.793Z,10.70
2023-05-08T01:44:20.138Z,10.80
2023-05-08T01:45:01.645Z,10.70
2023-05-08T01:45:45.277Z,10.40
2023-05-08T01:46:23.082Z,11.20
2023-05-08T01:46:57.424Z,9.90
2023-05-08T01:47:34.039Z,10.70
2023-05-08T01:48:13.854Z,12.80
2023-05-08T01:51:23.900Z,10.30
2023-05-08T01:52:03.409Z,10.40
2023-05-08T01:52:58.832Z,11.30
2023-05-08T01:53:54.435Z,10.10
2023-05-08T01:54:34.117Z,11.40
2023-05-08T01:55:16.586Z,10.30
2023-05-08T01:55:54.913Z,11.00
2023-05-08T01:56:30.475Z,11.60
2023-05-08T01:57:05.159Z,10.70
2023-05-08T01:57:44.363Z,10.80
2023-05-08T01:58:18.705Z,11.70
2023-05-08T01:58:54.712Z,12.40
2023-05-08T01:59:30.745Z,10.80
2023-05-08T02:00:06.118Z,11.90
2023-05-08T02:00:45.581Z,10.90
2023-05-08T02:01:23.666Z,11.30
2023-05-08T02:02:01.251Z,12.50
2023-05-08T02:02:36.346Z,13.00
2023-05-08T02:03:12.293Z,10.60
2023-05-08T02:03:46.891Z,11.80
2023-05-08T02:04:21.981Z,11.10
2023-05-08T02:04:56.668Z,12.50
2023-05-08T02:05:31.496Z,12.70
2023-05-08T02:06:06.101Z,11.20
2023-05-08T02:06:40.458Z,11.70
2023-05-08T02:07:14.293Z,11.40
2023-05-08T02:07:49.880Z,12.00
2023-05-08T02:08:27.083Z,11.60
2023-05-08T02:09:02.145Z,11.20
2023-05-08T02:09:37.088Z,12.10
2023-05-08T02:10:11.967Z,12.00
2023-05-08T02:10:48.083Z,12.30
2023-05-08T02:11:24.466Z,11.10
2023-05-08T02:12:00.708Z,13.60
2023-05-08T02:12:37.458Z,11.60
2023-05-08T02:13:13.738Z,11.70
2023-05-08T02:13:49.103Z,14.30
2023-05-08T02:14:23.861Z,13.20
2023-05-08T02:14:57.829Z,12.30
2023-05-08T02:15:36.093Z,12.30
2023-05-08T02:16:11.869Z,12.10
2023-05-08T02:16:48.061Z,11.20
2023-05-08T02:17:22.168Z,11.80
2023-05-08T02:17:56.127Z,12.90
2023-05-08T02:18:32.202Z,12.50
2023-05-08T02:19:07.878Z,12.30
2023-05-08T02:19:43.822Z,11.30
2023-05-08T02:20:18.935Z,12.70
2023-05-08T02:20:54.485Z,11.90
2023-05-08T02:21:29.088Z,11.70
2023-05-08T02:22:04.190Z,12.90
2023-05-08T02:22:37.952Z,12.10
2023-05-08T02:23:12.245Z,13.00
2023-05-08T02:23:47.199Z,13.10
2023-05-08T02:24:21.479Z,12.60
2023-05-08T02:24:56.670Z,12.60
2023-05-08T02:25:31.343Z,12.70
2023-05-08T02:26:05.391Z,12.20
2023-05-08T02:26:39.989Z,12.20
2023-05-08T02:27:14.570Z,11.90
2023-05-08T02:27:49.695Z,12.40
2023-05-08T02:28:25.307Z,11.70
2023-05-08T02:28:59.863Z,12.90
2023-05-08T02:29:34.147Z,14.00
2023-05-08T02:30:08.380Z,12.40
2023-05-08T02:30:43.112Z,13.20
2023-05-08T02:31:17.095Z,12.80
2023-05-08T02:31:52.572Z,12.10
2023-05-08T02:32:27.403Z,12.50
2023-05-08T02:33:01.600Z,12.50
2023-05-08T02:33:35.307Z,12.30
2023-05-08T02:34:10.807Z,12.80
2023-05-08T02:34:51.426Z,12.90
2023-05-08T02:35:37.632Z,11.30
2023-05-08T02:36:17.378Z,12.60
2023-05-08T02:36:53.408Z,11.70
2023-05-08T02:37:28.664Z,12.00
2023-05-08T02:38:03.835Z,12.40
2023-05-08T02:38:39.962Z,13.50
2023-05-08T02:39:15.380Z,12.20
2023-05-08T02:39:49.633Z,13.10
2023-05-08T02:40:26.476Z,14.60
2023-05-08T02:41:04.815Z,13.60
2023-05-08T02:41:41.701Z,12.80
2023-05-08T02:42:16.283Z,12.00
2023-05-08T02:42:50.338Z,12.50
2023-05-08T02:43:24.418Z,12.40
2023-05-08T02:43:58.569Z,13.80
2023-05-08T02:44:32.897Z,13.30
2023-05-08T02:45:07.835Z,12.50
2023-05-08T02:45:50.604Z,15.10
2023-05-08T02:46:30.410Z,12.80
2023-05-08T02:47:20.003Z,13.00
2023-05-08T02:47:57.412Z,13.10
2023-05-08T02:48:33.504Z,12.20
2023-05-08T02:49:20.764Z,12.00
2023-05-08T02:50:00.895Z,11.30
2023-05-08T02:50:40.580Z,12.40
2023-05-08T02:51:24.333Z,13.00
2023-05-08T02:52:19.366Z,12.00
2023-05-08T02:53:01.225Z,11.30
2023-05-08T02:53:45.908Z,11.90
2023-05-08T02:54:32.375Z,12.90
2023-05-08T02:55:27.580Z,11.50
2023-05-08T02:56:10.480Z,12.70
2023-05-08T02:57:25.181Z,14.20
2023-05-08T02:58:11.935Z,12.60
2023-05-08T02:58:55.748Z,12.70
2023-05-08T02:59:31.721Z,11.90
2023-05-08T03:00:24.863Z,12.60
2023-05-08T03:01:07.006Z,11.70
2023-05-08T03:02:24.842Z,14.90
2023-05-08T03:04:11.736Z,10.30
2023-05-08T03:04:56.637Z,12.80
2023-05-08T03:05:35.374Z,12.00
2023-05-08T03:06:22.116Z,11.90
2023-05-08T03:06:58.431Z,12.60
2023-05-08T03:07:39.051Z,13.10
2023-05-08T03:08:18.162Z,12.00
2023-05-08T03:08:52.730Z,13.00
2023-05-08T03:09:32.365Z,14.20
2023-05-08T03:10:11.087Z,12.80
2023-05-08T03:10:47.090Z,13.90
2023-05-08T03:11:25.380Z,13.10
2023-05-08T03:12:05.250Z,12.40
2023-05-08T03:12:43.231Z,13.40
2023-05-08T03:13:19.294Z,12.90
2023-05-08T03:13:57.353Z,12.40
2023-05-08T03:14:36.034Z,12.30
2023-05-08T03:15:19.270Z,12.80
2023-05-08T03:15:58.990Z,13.00
2023-05-08T03:16:35.245Z,11.70
2023-05-08T03:17:12.170Z,12.60
2023-05-08T03:17:47.814Z,12.90
2023-05-08T03:18:35.245Z,12.30
2023-05-08T03:19:23.007Z,13.10
2023-05-08T03:20:00.942Z,12.50
2023-05-08T03:20:40.275Z,12.80
2023-05-08T03:21:20.001Z,12.80
2023-05-08T03:21:56.181Z,12.30
2023-05-08T03:22:32.831Z,11.90
2023-05-08T03:23:10.124Z,12.50
2023-05-08T03:23:44.878Z,12.90
2023-05-08T03:24:20.615Z,12.40
2023-05-08T03:24:56.770Z,11.80
2023-05-08T03:25:32.655Z,12.70
2023-05-08T03:26:07.963Z,13.20
2023-05-08T03:26:43.251Z,12.90
2023-05-08T03:27:18.034Z,12.20
2023-05-08T03:27:53.011Z,12.50
2023-05-08T03:28:28.745Z,12.40
2023-05-08T03:29:06.064Z,12.70
2023-05-08T03:29:40.176Z,13.10
2023-05-08T03:30:14.740Z,13.90
2023-05-08T03:30:52.005Z,12.50
2023-05-08T03:31:25.912Z,12.50
2023-05-08T03:32:02.545Z,13.00
2023-05-08T03:32:37.393Z,13.90
2023-05-08T03:33:12.641Z,13.40
2023-05-08T03:33:46.372Z,13.40
2023-05-08T03:34:21.068Z,12.50
2023-05-08T03:34:59.032Z,13.80
2023-05-08T03:35:35.352Z,14.10
2023-05-08T03:36:09.023Z,12.20
2023-05-08T03:36:42.825Z,12.60
2023-05-08T03:37:16.195Z,12.80
2023-05-08T03:37:49.557Z,12.70
2023-05-08T03:38:23.558Z,12.40
2023-05-08T03:38:56.955Z,13.20
2023-05-08T03:39:30.453Z,14.50
2023-05-08T03:40:04.121Z,13.70
2023-05-08T03:40:42.816Z,12.30
2023-05-08T03:41:17.246Z,14.20
2023-05-08T03:41:52.227Z,12.20
2023-05-08T03:42:26.169Z,13.00
2023-05-08T03:43:01.472Z,12.70
2023-05-08T03:43:37.153Z,13.30
2023-05-08T03:44:12.108Z,12.40
2023-05-08T03:44:45.825Z,13.40
2023-05-08T03:45:20.449Z,13.10
2023-05-08T03:45:55.601Z,13.60
2023-05-08T03:46:31.798Z,13.00
2023-05-08T03:47:06.970Z,12.50
2023-05-08T03:47:42.394Z,13.70
2023-05-08T03:48:17.251Z,13.10
2023-05-08T03:48:51.483Z,11.70
2023-05-08T03:49:31.561Z,12.40
2023-05-08T03:50:05.732Z,12.10
2023-05-08T03:50:39.370Z,14.00
2023-05-08T03:51:16.600Z,12.40
2023-05-08T03:51:50.464Z,12.70
2023-05-08T03:52:23.869Z,13.10
2023-05-08T03:52:59.009Z,12.30
2023-05-08T03:53:33.463Z,12.20
2023-05-08T03:54:07.249Z,12.00
2023-05-08T03:54:40.755Z,11.90
2023-05-08T03:55:14.311Z,12.10
2023-05-08T03:55:47.997Z,12.30
2023-05-08T03:56:22.092Z,11.70
2023-05-08T03:56:57.057Z,14.60
2023-05-08T03:57:39.436Z,11.70
2023-05-08T03:58:28.863Z,12.20
2023-05-08T03:59:22.094Z,11.30
2023-05-08T04:00:10.015Z,12.20
2023-05-08T04:01:32.539Z,11.50
2023-05-08T04:02:19.971Z,11.30
2023-05-08T04:03:05.690Z,12.20
2023-05-08T04:03:53.315Z,13.40
2023-05-08T04:04:42.408Z,10.60
2023-05-08T04:05:34.723Z,11.20
2023-05-08T04:06:35.711Z,10.90
2023-05-08T04:07:28.932Z,12.00
2023-05-08T04:08:20.045Z,12.00
2023-05-08T04:09:57.053Z,11.30
2023-05-08T04:10:36.308Z,13.80
2023-05-08T04:11:18.369Z,13.20
2023-05-08T04:12:05.536Z,11.30
2023-05-08T04:12:47.346Z,11.80
2023-05-08T04:13:27.539Z,13.00
2023-05-08T04:14:05.493Z,12.60
2023-05-08T04:14:44.109Z,11.80
2023-05-08T04:15:26.189Z,11.00
2023-05-08T04:16:12.333Z,13.10
2023-05-08T04:16:52.312Z,13.00
2023-05-08T04:17:50.932Z,13.40
2023-05-08T04:18:31.457Z,11.90
2023-05-08T04:19:12.153Z,14.70
2023-05-08T04:19:47.268Z,13.30
2023-05-08T04:20:22.665Z,13.10
2023-05-08T04:20:56.940Z,11.20
2023-05-08T04:21:35.690Z,12.60
2023-05-08T04:22:12.213Z,12.70
2023-05-08T04:22:48.482Z,11.60
2023-05-08T04:23:25.169Z,13.40
2023-05-08T04:23:59.196Z,14.60
2023-05-08T04:24:35.644Z,12.10
2023-05-08T04:25:10.893Z,12.00
2023-05-08T04:25:47.653Z,12.30
2023-05-08T04:26:21.001Z,11.00
2023-05-08T04:26:55.163Z,11.10
2023-05-08T04:27:30.598Z,13.20
2023-05-08T04:28:04.948Z,11.30
2023-05-08T04:28:39.723Z,13.50
2023-05-08T04:29:14.198Z,11.20
2023-05-08T04:29:47.746Z,11.90
2023-05-08T04:30:21.296Z,13.60
2023-05-08T04:30:57.013Z,12.40
2023-05-08T04:31:31.413Z,11.20
2023-05-08T04:32:06.216Z,12.60
2023-05-08T04:32:43.385Z,12.00
2023-05-08T04:33:19.338Z,12.00
2023-05-08T04:33:53.142Z,11.50
2023-05-08T04:34:26.555Z,10.90
2023-05-08T04:35:00.456Z,11.40
2023-05-08T04:35:34.689Z,11.60
2023-05-08T04:36:12.872Z,12.60
2023-05-08T04:36:48.798Z,12.20
2023-05-08T04:37:29.656Z,12.30
2023-05-08T04:38:03.882Z,12.40
2023-05-08T04:38:39.863Z,14.10
2023-05-08T04:39:13.535Z,12.60
2023-05-08T04:39:51.201Z,11.10
2023-05-08T04:40:25.232Z,10.90
2023-05-08T04:40:58.601Z,12.90
2023-05-08T04:41:32.613Z,12.40
2023-05-08T04:42:06.013Z,12.10
2023-05-08T04:42:43.131Z,12.00
2023-05-08T04:43:16.668Z,12.70
2023-05-08T04:43:50.811Z,14.90
2023-05-08T04:44:24.400Z,13.30
2023-05-08T04:44:57.911Z,11.70
2023-05-08T04:45:31.243Z,11.30
2023-05-08T04:46:06.422Z,11.70
2023-05-08T04:46:39.838Z,12.70
2023-05-08T04:47:13.882Z,12.30
2023-05-08T04:47:47.813Z,12.30
2023-05-08T04:48:21.905Z,12.20
2023-05-08T04:48:55.268Z,13.30
2023-05-08T04:49:28.578Z,11.90
2023-05-08T04:50:03.048Z,12.00
2023-05-08T04:50:37.837Z,11.90
2023-05-08T04:51:12.140Z,13.00
2023-05-08T04:51:45.573Z,13.00
2023-05-08T04:52:19.014Z,12.80
2023-05-08T04:52:52.419Z,12.60
2023-05-08T04:53:25.790Z,12.90
2023-05-08T04:53:59.342Z,12.30
2023-05-08T04:54:32.772Z,11.20
2023-05-08T04:55:06.698Z,11.60
2023-05-08T04:55:41.199Z,11.90
2023-05-08T04:56:14.461Z,11.20
2023-05-08T04:56:47.828Z,11.40
2023-05-08T04:57:21.134Z,11.50
2023-05-08T04:57:54.707Z,10.10
2023-05-08T04:58:29.268Z,12.90
2023-05-08T04:59:03.070Z,11.20
2023-05-08T04:59:36.820Z,11.10
2023-05-08T05:00:10.871Z,11.70
2023-05-08T05:00:46.310Z,10.10
2023-05-08T05:01:19.667Z,11.80
2023-05-08T05:01:53.528Z,11.40
2023-05-08T05:02:27.269Z,10.60
2023-05-08T05:03:01.101Z,10.90
2023-05-08T05:03:44.241Z,11.70
2023-05-08T05:04:17.937Z,11.00
2023-05-08T05:04:51.463Z,11.40
2023-05-08T05:05:24.848Z,14.70
2023-05-08T05:05:59.695Z,10.80
2023-05-08T05:06:33.859Z,11.00
2023-05-08T05:07:07.201Z,11.90
2023-05-08T05:07:40.610Z,10.90
2023-05-08T05:08:14.158Z,10.70
2023-05-08T05:08:47.546Z,10.30
2023-05-08T05:09:21.150Z,11.10
2023-05-08T05:09:54.446Z,11.10
2023-05-08T05:10:27.789Z,10.50
2023-05-08T05:11:01.088Z,11.10
2023-05-08T05:11:35.081Z,10.50
2023-05-08T05:12:08.510Z,9.80
2023-05-08T05:12:42.023Z,10.50
2023-05-08T05:13:15.883Z,10.60
2023-05-08T05:13:50.118Z,10.80
2023-05-08T05:14:23.913Z,10.90
2023-05-08T05:14:57.233Z,10.10
2023-05-08T05:15:30.925Z,10.10
2023-05-08T05:16:04.400Z,11.10
2023-05-08T05:16:38.307Z,10.40
2023-05-08T05:17:11.803Z,11.60
2023-05-08T05:17:45.289Z,9.70
2023-05-08T05:18:19.038Z,11.30
2023-05-08T05:18:52.487Z,12.00
2023-05-08T05:19:26.060Z,10.40
2023-05-08T05:20:00.010Z,11.00
2023-05-08T05:20:33.904Z,12.10
2023-05-08T05:21:07.324Z,11.10
2023-05-08T05:21:40.900Z,11.20
2023-05-08T05:22:14.857Z,10.70
2023-05-08T05:22:51.632Z,9.50
2023-05-08T05:23:25.278Z,10.50
2023-05-08T05:23:58.958Z,11.10
2023-05-08T05:24:32.381Z,10.40
2023-05-08T05:25:06.155Z,11.40
2023-05-08T05:25:39.504Z,10.30
2023-05-08T05:26:12.871Z,11.70
2023-05-08T05:26:46.200Z,14.40
2023-05-08T05:27:21.257Z,11.00
2023-05-08T05:27:54.746Z,10.10
2023-05-08T05:28:28.203Z,9.80
2023-05-08T05:29:01.736Z,9.00
2023-05-08T05:29:35.496Z,11.70
2023-05-08T05:30:09.067Z,9.50
2023-05-08T05:30:42.563Z,10.30
2023-05-08T05:31:15.864Z,10.70
2023-05-08T05:31:49.931Z,11.20
2023-05-08T05:32:23.346Z,9.70
2023-05-08T05:32:56.570Z,9.70
2023-05-08T05:33:29.802Z,9.20
2023-05-08T05:34:03.353Z,10.00
2023-05-08T05:34:36.722Z,8.90
2023-05-08T05:35:11.140Z,10.20
2023-05-08T05:35:44.656Z,10.40
2023-05-08T05:36:18.137Z,9.30
2023-05-08T05:36:51.523Z,10.50
2023-05-08T05:37:24.961Z,9.90
2023-05-08T05:37:58.901Z,9.80
2023-05-08T05:38:32.647Z,10.90
2023-05-08T05:39:06.115Z,8.10
2023-05-08T05:39:39.577Z,9.20
2023-05-08T05:40:13.599Z,8.40
2023-05-08T05:40:47.190Z,9.10
2023-05-08T05:41:20.543Z,8.70
2023-05-08T05:41:53.844Z,9.00
2023-05-08T05:42:27.364Z,8.80
2023-05-08T05:43:01.008Z,9.50
2023-05-08T05:43:34.553Z,8.70
2023-05-08T05:44:08.170Z,7.90
2023-05-08T05:44:41.636Z,9.40
2023-05-08T05:45:15.672Z,8.80
2023-05-08T05:45:49.069Z,8.40
2023-05-08T05:46:26.893Z,7.60
2023-05-08T05:47:01.550Z,8.20
2023-05-08T05:47:35.029Z,8.40
2023-05-08T05:48:08.894Z,8.30
2023-05-08T05:48:42.482Z,9.90
2023-05-08T05:49:15.887Z,9.10
2023-05-08T05:49:49.228Z,9.00
2023-05-08T05:50:22.873Z,8.40
2023-05-08T05:50:56.579Z,10.00
2023-05-08T05:51:30.469Z,8.10
2023-05-08T05:52:04.128Z,8.50
2023-05-08T05:52:37.640Z,8.90
2023-05-08T05:53:11.027Z,7.70
2023-05-08T05:53:44.990Z,9.20
2023-05-08T05:54:18.438Z,8.60
2023-05-08T05:54:51.877Z,9.10
2023-05-08T05:55:25.427Z,8.40
2023-05-08T05:55:58.849Z,8.30
2023-05-08T05:56:35.072Z,8.70
2023-05-08T05:57:08.421Z,8.60
2023-05-08T05:57:42.033Z,8.10
2023-05-08T05:58:16.916Z,8.70
2023-05-08T05:58:50.615Z,8.70
2023-05-08T05:59:24.368Z,9.00
2023-05-08T05:59:59.878Z,7.60
2023-05-08T06:00:33.455Z,8.60
2023-05-08T06:01:06.809Z,8.60
2023-05-08T06:01:41.048Z,8.80
2023-05-08T06:02:18.916Z,8.80
2023-05-08T06:02:52.711Z,7.70
2023-05-08T06:03:26.557Z,8.30
2023-05-08T06:04:00.444Z,8.30
2023-05-08T06:04:34.032Z,9.20
2023-05-08T06:05:08.199Z,9.00
2023-05-08T06:05:41.693Z,8.20
2023-05-08T06:06:15.027Z,8.00
2023-05-08T06:06:48.578Z,7.80
2023-05-08T06:07:22.506Z,7.90
2023-05-08T06:07:55.999Z,7.30
2023-05-08T06:08:30.713Z,8.90
2023-05-08T06:09:04.765Z,8.20
2023-05-08T06:09:38.118Z,8.00
2023-05-08T06:10:12.128Z,7.50
2023-05-08T06:10:45.624Z,9.00
2023-05-08T06:11:19.729Z,7.50
2023-05-08T06:11:53.134Z,7.10
2023-05-08T06:12:26.675Z,7.90
2023-05-08T06:13:00.162Z,7.90
2023-05-08T06:13:34.085Z,7.50
2023-05-08T06:14:09.290Z,8.20
2023-05-08T06:14:42.700Z,7.20
2023-05-08T06:15:16.230Z,8.20
2023-05-08T06:15:51.168Z,8.10
2023-05-08T06:16:25.300Z,7.10
2023-05-08T06:16:58.936Z,7.80
2023-05-08T06:17:35.773Z,7.90
2023-05-08T06:18:12.798Z,8.10
2023-05-08T06:18:49.214Z,8.20
2023-05-08T06:20:59.503Z,7.80
2023-05-08T06:21:33.992Z,6.80
2023-05-08T06:22:07.399Z,7.00
2023-05-08T06:22:41.597Z,8.10
2023-05-08T06:23:14.925Z,7.80
2023-05-08T06:23:48.265Z,8.10
2023-05-08T06:24:21.803Z,7.00
2023-05-08T06:24:55.186Z,7.10
2023-05-08T06:25:28.569Z,7.90
2023-05-08T06:26:02.112Z,7.70
2023-05-08T06:26:35.567Z,7.00
2023-05-08T06:27:09.096Z,7.20
2023-05-08T06:27:42.348Z,7.80
2023-05-08T06:28:15.679Z,9.00
2023-05-08T06:28:49.211Z,9.10
2023-05-08T06:29:22.641Z,7.50
2023-05-08T06:29:55.970Z,9.30
2023-05-08T06:30:29.433Z,7.20
2023-05-08T06:31:02.966Z,6.80
2023-05-08T06:31:36.622Z,7.50
2023-05-08T06:32:09.970Z,9.00
2023-05-08T06:32:43.277Z,7.60
2023-05-08T06:33:16.663Z,7.20
2023-05-08T06:33:49.997Z,8.00
2023-05-08T06:34:23.245Z,7.80
2023-05-08T06:34:56.945Z,8.90
2023-05-08T06:35:30.297Z,7.80
2023-05-08T06:36:06.463Z,8.50
2023-05-08T06:36:39.789Z,6.80
2023-05-08T06:37:13.129Z,6.60
2023-05-08T06:37:47.243Z,7.40
2023-05-08T06:38:20.541Z,6.80
2023-05-08T06:38:54.042Z,8.60
2023-05-08T06:39:27.587Z,7.10
2023-05-08T06:40:11.562Z,8.00
2023-05-08T06:40:46.002Z,8.50
2023-05-08T06:41:19.222Z,8.30
2023-05-08T06:41:52.665Z,7.30
2023-05-08T06:42:31.735Z,7.10
2023-05-08T06:43:05.049Z,7.50
2023-05-08T06:43:38.274Z,7.50
2023-05-08T06:44:11.746Z,8.60
2023-05-08T06:44:45.271Z,7.20
2023-05-08T06:45:18.715Z,7.00
2023-05-08T06:45:53.315Z,8.00
2023-05-08T06:46:26.647Z,7.60
2023-05-08T06:47:00.200Z,8.90
2023-05-08T06:47:33.658Z,6.50
2023-05-08T06:48:07.686Z,7.50
2023-05-08T06:48:41.562Z,6.40
2023-05-08T06:49:14.968Z,6.90
2023-05-08T06:49:48.180Z,6.70
2023-05-08T06:50:21.576Z,6.90
2023-05-08T06:50:56.073Z,8.50
2023-05-08T06:51:29.479Z,8.40
2023-05-08T06:52:03.065Z,7.50
2023-05-08T06:52:36.513Z,6.80
2023-05-08T06:53:10.000Z,6.90
2023-05-08T06:53:43.282Z,7.40
2023-05-08T06:54:16.749Z,5.80
2023-05-08T06:54:50.140Z,6.30
2023-05-08T06:55:23.852Z,7.20
2023-05-08T06:55:59.957Z,6.50
2023-05-08T06:56:33.632Z,6.20
2023-05-08T06:57:07.973Z,5.30
2023-05-08T06:57:41.185Z,6.00
2023-05-08T06:58:14.381Z,5.80
2023-05-08T06:59:00.489Z,5.70
2023-05-08T06:59:38.237Z,6.00
2023-05-08T07:00:12.153Z,6.10
2023-05-08T07:00:46.295Z,6.70
2023-05-08T07:01:19.721Z,6.90
2023-05-08T07:01:53.090Z,6.50
2023-05-08T07:02:26.462Z,6.40
2023-05-08T07:03:00.230Z,5.60
2023-05-08T07:03:34.320Z,6.10
2023-05-08T07:04:07.810Z,5.50
2023-05-08T07:04:41.252Z,6.00
2023-05-08T07:05:15.018Z,5.90
2023-05-08T07:05:48.666Z,6.50
2023-05-08T07:06:21.883Z,6.00
2023-05-08T07:06:55.206Z,6.10
2023-05-08T07:07:28.525Z,5.60
2023-05-08T07:08:01.761Z,5.10
2023-05-08T07:08:34.983Z,5.80
2023-05-08T07:09:08.271Z,5.80
2023-05-08T07:09:41.703Z,5.90
2023-05-08T07:10:15.100Z,7.10
2023-05-08T07:10:48.525Z,6.00
2023-05-08T07:11:22.174Z,7.30
2023-05-08T07:11:55.364Z,5.60
2023-05-08T07:12:28.761Z,6.30
2023-05-08T07:13:03.021Z,7.30
2023-05-08T07:13:37.249Z,6.20
2023-05-08T07:14:10.522Z,7.80
2023-05-08T07:14:43.930Z,6.80
2023-05-08T07:15:25.311Z,6.30
2023-05-08T07:15:59.772Z,6.30
2023-05-08T07:16:33.366Z,6.30
2023-05-08T07:17:07.126Z,6.40
2023-05-08T07:17:41.881Z,7.10
2023-05-08T07:18:15.348Z,6.00
2023-05-08T07:18:48.714Z,6.50
2023-05-08T07:19:22.642Z,6.10
2023-05-08T07:19:56.213Z,6.40
2023-05-08T07:20:29.678Z,6.10
2023-05-08T07:21:03.634Z,6.70
2023-05-08T07:21:37.479Z,5.30
2023-05-08T07:22:11.124Z,5.80
2023-05-08T07:22:44.399Z,5.40
2023-05-08T07:23:17.690Z,5.00
2023-05-08T07:23:52.036Z,5.00
2023-05-08T07:24:25.372Z,4.70
2023-05-08T07:24:58.841Z,5.00
2023-05-08T07:25:32.406Z,4.50
2023-05-08T07:26:05.700Z,6.30
2023-05-08T07:26:38.918Z,5.60
2023-05-08T07:27:14.624Z,5.30
2023-05-08T07:27:47.898Z,5.30
2023-05-08T07:28:21.289Z,4.90
2023-05-08T07:28:54.781Z,5.00
2023-05-08T07:29:28.376Z,5.40
2023-05-08T07:30:04.608Z,4.80
2023-05-08T07:30:37.891Z,5.80
2023-05-08T07:31:11.424Z,6.10
2023-05-08T07:31:46.323Z,7.20
2023-05-08T07:32:19.574Z,5.10
2023-05-08T07:32:53.049Z,5.10
2023-05-08T07:33:26.530Z,5.10
2023-05-08T07:34:00.354Z,5.50
2023-05-08T07:34:34.906Z,5.10
2023-05-08T07:35:11.114Z,5.20
2023-05-08T07:35:44.800Z,4.60
2023-05-08T07:36:18.146Z,5.30
2023-05-08T07:36:51.635Z,6.00
2023-05-08T07:37:24.999Z,5.20
2023-05-08T07:37:58.322Z,5.00
2023-05-08T07:38:31.839Z,4.60
2023-05-08T07:39:05.142Z,4.90
2023-05-08T07:39:40.173Z,5.60
2023-05-08T07:40:13.493Z,4.70
2023-05-08T07:40:46.990Z,5.10
2023-05-08T07:41:20.562Z,5.50
2023-05-08T07:41:53.951Z,5.70
2023-05-08T07:42:27.377Z,6.00
2023-05-08T07:43:00.824Z,4.90
2023-05-08T07:43:34.083Z,5.60
2023-05-08T07:44:07.670Z,4.50
2023-05-08T07:44:53.558Z,5.00
2023-05-08T07:45:28.008Z,5.40
2023-05-08T07:46:01.405Z,5.10
2023-05-08T07:46:34.916Z,4.80
2023-05-08T07:47:08.673Z,5.80
2023-05-08T07:47:55.611Z,6.20
2023-05-08T07:48:28.832Z,6.00
2023-05-08T07:49:02.105Z,6.40
2023-05-08T07:49:35.590Z,5.00
2023-05-08T07:50:09.038Z,5.10
2023-05-08T07:50:45.238Z,4.70
2023-05-08T07:51:18.700Z,5.30
2023-05-08T07:51:52.355Z,4.90
2023-05-08T07:52:25.638Z,5.30
2023-05-08T07:52:58.873Z,4.30
2023-05-08T07:53:32.214Z,4.70
2023-05-08T07:54:05.663Z,4.60
2023-05-08T07:54:38.983Z,4.80
2023-05-08T07:55:13.167Z,5.50
2023-05-08T07:55:46.661Z,4.60
2023-05-08T07:56:24.714Z,5.40
2023-05-08T07:56:57.927Z,5.40
2023-05-08T07:57:40.291Z,4.40
2023-05-08T07:58:13.792Z,4.60
2023-05-08T07:58:48.067Z,4.70
2023-05-08T07:59:21.405Z,6.00
2023-05-08T07:59:54.650Z,4.80
2023-05-08T08:00:28.203Z,4.80
2023-05-08T08:01:02.227Z,4.80
2023-05-08T08:01:35.767Z,4.50